createdAt,value
2023-05-21T00:00:13.286Z,15.04
2023-05-21T00:01:13.350Z,15.04
2023-05-21T00:02:13.377Z,15.00
2023-05-21T00:03:13.352Z,15.00
2023-05-21T00:04:13.272Z,14.97
2023-05-21T00:05:14.630Z,14.94
2023-05-21T00:06:13.238Z,14.91
2023-05-21T00:07:13.224Z,14.87
2023-05-21T00:08:13.195Z,14.86
2023-05-21T00:09:13.241Z,14.85
2023-05-21T00:10:13.204Z,14.82
2023-05-21T00:11:13.204Z,14.80
2023-05-21T00:12:13.287Z,14.80
2023-05-21T00:13:13.149Z,14.78
2023-05-21T00:14:13.133Z,14.75
2023-05-21T00:15:13.129Z,14.71
2023-05-21T00:16:13.143Z,14.71
2023-05-21T00:17:13.124Z,14.69
2023-05-21T00:18:13.148Z,14.66
2023-05-21T00:19:13.105Z,14.66
2023-05-21T00:20:13.067Z,14.66
2023-05-21T00:21:13.029Z,14.66
2023-05-21T00:22:13.033Z,14.66
2023-05-21T00:23:13.009Z,14.66
2023-05-21T00:24:13.000Z,14.66
2023-05-21T00:25:13.001Z,14.64
2023-05-21T00:26:12.995Z,14.64
2023-05-21T00:27:12.982Z,14.66
2023-05-21T00:28:12.929Z,14.64
2023-05-21T00:29:12.959Z,14.61
2023-05-21T00:30:12.929Z,14.61
2023-05-21T00:31:12.932Z,14.61
2023-05-21T00:32:12.924Z,14.57
2023-05-21T00:33:12.875Z,14.56
2023-05-21T00:34:12.877Z,14.56
2023-05-21T00:35:12.868Z,14.54
2023-05-21T00:36:12.850Z,14.54
2023-05-21T00:37:12.815Z,14.54
2023-05-21T00:38:12.820Z,14.54
2023-05-21T00:39:12.824Z,14.56
2023-05-21T00:40:12.807Z,14.54
2023-05-21T00:41:12.789Z,14.53
2023-05-21T00:42:12.747Z,14.52
2023-05-21T00:43:12.757Z,14.48
2023-05-21T00:44:12.708Z,14.48
2023-05-21T00:45:12.764Z,14.46
2023-05-21T00:46:12.758Z,14.48
2023-05-21T00:47:12.711Z,14.49
2023-05-21T00:48:12.703Z,14.49
2023-05-21T00:49:12.681Z,14.48
2023-05-21T00:50:12.671Z,14.49
2023-05-21T00:51:12.667Z,14.48
2023-05-21T00:52:12.696Z,14.49
2023-05-21T00:53:12.635Z,14.48
2023-05-21T00:54:12.594Z,14.48
2023-05-21T00:55:12.639Z,14.48
2023-05-21T00:56:12.556Z,14.49
2023-05-21T00:57:12.564Z,14.48
2023-05-21T00:58:12.524Z,14.48
2023-05-21T00:59:12.559Z,14.46
2023-05-21T01:00:12.552Z,14.46
2023-05-21T01:01:12.527Z,14.44
2023-05-21T01:02:12.554Z,14.42
2023-05-21T01:03:12.610Z,14.41
2023-05-21T01:04:12.502Z,14.41
2023-05-21T01:05:12.489Z,14.39
2023-05-21T01:06:12.443Z,14.36
2023-05-21T01:07:12.460Z,14.36
2023-05-21T01:08:12.413Z,14.35
2023-05-21T01:09:12.424Z,14.36
2023-05-21T01:10:12.414Z,14.35
2023-05-21T01:11:12.376Z,14.35
2023-05-21T01:12:12.384Z,14.36
2023-05-21T01:13:12.392Z,14.35
2023-05-21T01:14:12.326Z,14.35
2023-05-21T01:15:12.336Z,14.34
2023-05-21T01:16:12.333Z,14.34
2023-05-21T01:17:12.428Z,14.34
2023-05-21T01:18:12.335Z,14.34
2023-05-21T01:19:12.335Z,14.35
2023-05-21T01:20:12.276Z,14.34
2023-05-21T01:21:12.240Z,14.34
2023-05-21T01:22:12.238Z,14.31
2023-05-21T01:23:12.238Z,14.31
2023-05-21T01:24:12.215Z,14.29
2023-05-21T01:25:12.224Z,14.30
2023-05-21T01:26:12.174Z,14.29
2023-05-21T01:27:12.160Z,14.30
2023-05-21T01:28:12.154Z,14.30
2023-05-21T01:29:12.145Z,14.29
2023-05-21T01:30:12.156Z,14.31
2023-05-21T01:31:12.113Z,14.31
2023-05-21T01:32:12.096Z,14.34
2023-05-21T01:33:12.159Z,14.31
2023-05-21T01:34:12.054Z,14.31
2023-05-21T01:35:12.113Z,14.31
2023-05-21T01:36:12.085Z,14.30
2023-05-21T01:37:12.038Z,14.31
2023-05-21T01:38:12.032Z,14.30
2023-05-21T01:39:12.036Z,14.31
2023-05-21T01:40:12.000Z,14.34
2023-05-21T01:41:12.009Z,14.34
2023-05-21T01:42:11.973Z,14.31
2023-05-21T01:43:11.950Z,14.34
2023-05-21T01:44:11.982Z,14.34
2023-05-21T01:45:11.968Z,14.35
2023-05-21T01:46:11.971Z,14.31
2023-05-21T01:47:11.909Z,14.34
2023-05-21T01:48:11.883Z,14.30
2023-05-21T01:49:11.909Z,14.31
2023-05-21T01:50:11.895Z,14.30
2023-05-21T01:51:11.850Z,14.31
2023-05-21T01:52:11.829Z,14.29
2023-05-21T01:53:11.850Z,14.30
2023-05-21T01:54:11.790Z,14.26
2023-05-21T01:55:11.850Z,14.26
2023-05-21T01:56:11.796Z,14.26
2023-05-21T01:57:11.793Z,14.27
2023-05-21T01:58:11.766Z,14.27
2023-05-21T01:59:11.759Z,14.26
2023-05-21T02:00:11.775Z,14.27
2023-05-21T02:01:11.760Z,14.26
2023-05-21T02:02:11.764Z,14.24
2023-05-21T02:03:11.796Z,14.24
2023-05-21T02:04:11.776Z,14.23
2023-05-21T02:05:11.671Z,14.19
2023-05-21T02:06:11.674Z,14.19
2023-05-21T02:07:11.670Z,14.17
2023-05-21T02:08:11.645Z,14.16
2023-05-21T02:09:11.658Z,14.17
2023-05-21T02:10:11.633Z,14.13
2023-05-21T02:11:11.621Z,14.12
2023-05-21T02:12:11.569Z,14.11
2023-05-21T02:13:11.581Z,14.11
2023-05-21T02:14:11.542Z,14.12
2023-05-21T02:15:11.544Z,14.12
2023-05-21T02:16:11.571Z,14.09
2023-05-21T02:17:11.533Z,14.11
2023-05-21T02:18:11.633Z,14.11
2023-05-21T02:19:11.626Z,14.12
2023-05-21T02:20:11.510Z,14.11
2023-05-21T02:21:11.537Z,14.11
2023-05-21T02:22:11.436Z,14.09
2023-05-21T02:23:11.458Z,14.09
2023-05-21T02:24:11.441Z,14.09
2023-05-21T02:25:11.405Z,14.08
2023-05-21T02:26:11.403Z,14.08
2023-05-21T02:27:11.400Z,14.05
2023-05-21T02:28:11.401Z,14.05
2023-05-21T02:29:11.375Z,14.04
2023-05-21T02:30:11.340Z,14.04
2023-05-21T02:31:11.354Z,14.02
2023-05-21T02:32:11.353Z,14.01
2023-05-21T02:33:11.325Z,13.99
2023-05-21T02:34:11.362Z,13.98
2023-05-21T02:35:11.267Z,13.98
2023-05-21T02:36:11.263Z,13.96
2023-05-21T02:37:11.280Z,13.98
2023-05-21T02:38:11.248Z,13.96
2023-05-21T02:39:11.217Z,13.94
2023-05-21T02:40:11.243Z,13.96
2023-05-21T02:41:11.224Z,14.01
2023-05-21T02:42:11.174Z,13.99
2023-05-21T02:43:11.200Z,14.01
2023-05-21T02:44:11.149Z,14.01
2023-05-21T02:45:11.168Z,14.02
2023-05-21T02:46:11.223Z,14.01
2023-05-21T02:47:11.136Z,13.98
2023-05-21T02:48:11.185Z,13.94
2023-05-21T02:49:11.137Z,13.96
2023-05-21T02:50:11.128Z,13.96
2023-05-21T02:51:11.083Z,13.94
2023-05-21T02:52:11.090Z,13.94
2023-05-21T02:53:11.025Z,13.93
2023-05-21T02:54:11.056Z,13.93
2023-05-21T02:55:10.998Z,13.96
2023-05-21T02:56:11.027Z,13.96
2023-05-21T02:57:11.002Z,13.98
2023-05-21T02:58:10.976Z,13.99
2023-05-21T02:59:10.962Z,14.01
2023-05-21T03:00:10.982Z,14.01
2023-05-21T03:01:10.972Z,13.99
2023-05-21T03:02:10.947Z,13.99
2023-05-21T03:03:11.048Z,14.01
2023-05-21T03:04:10.898Z,14.01
2023-05-21T03:05:10.885Z,14.04
2023-05-21T03:06:10.923Z,14.04
2023-05-21T03:07:10.849Z,14.04
2023-05-21T03:08:10.890Z,14.05
2023-05-21T03:09:10.809Z,14.05
2023-05-21T03:10:10.809Z,14.05
2023-05-21T03:11:10.847Z,14.04
2023-05-21T03:12:10.941Z,14.06
2023-05-21T03:13:10.817Z,14.06
2023-05-21T03:14:10.760Z,14.05
2023-05-21T03:15:10.754Z,14.06
2023-05-21T03:16:10.810Z,14.08
2023-05-21T03:17:10.717Z,14.09
2023-05-21T03:18:10.815Z,14.08
2023-05-21T03:19:10.757Z,14.09
2023-05-21T03:20:10.764Z,14.09
2023-05-21T03:21:10.684Z,14.11
2023-05-21T03:22:10.734Z,14.09
2023-05-21T03:23:10.660Z,14.09
2023-05-21T03:24:10.671Z,14.09
2023-05-21T03:25:10.688Z,14.06
2023-05-21T03:26:10.695Z,14.08
2023-05-21T03:27:10.613Z,14.08
2023-05-21T03:28:10.676Z,14.06
2023-05-21T03:29:10.589Z,14.06
2023-05-21T03:30:10.592Z,14.04
2023-05-21T03:31:10.543Z,14.02
2023-05-21T03:32:10.579Z,14.02
2023-05-21T03:33:10.598Z,14.04
2023-05-21T03:34:10.527Z,14.04
2023-05-21T03:35:10.502Z,14.02
2023-05-21T03:36:10.487Z,14.01
2023-05-21T03:37:10.484Z,14.01
2023-05-21T03:38:10.466Z,14.02
2023-05-21T03:39:10.443Z,14.02
2023-05-21T03:40:10.449Z,14.01
2023-05-21T03:41:10.403Z,14.01
2023-05-21T03:42:10.409Z,14.05
2023-05-21T03:43:10.371Z,14.05
2023-05-21T03:44:10.367Z,14.05
2023-05-21T03:45:10.330Z,14.05
2023-05-21T03:46:10.394Z,14.06
2023-05-21T03:47:10.336Z,14.05
2023-05-21T03:48:10.332Z,14.08
2023-05-21T03:49:10.314Z,14.06
2023-05-21T03:50:10.342Z,14.08
2023-05-21T03:51:10.279Z,14.09
2023-05-21T03:52:10.280Z,14.09
2023-05-21T03:53:10.248Z,14.08
2023-05-21T03:54:10.268Z,14.09
2023-05-21T03:55:10.211Z,14.08
2023-05-21T03:56:10.258Z,14.08
2023-05-21T03:57:10.221Z,14.08
2023-05-21T03:58:10.174Z,14.08
2023-05-21T03:59:10.190Z,14.09
2023-05-21T04:00:10.206Z,14.08
2023-05-21T04:01:10.164Z,14.08
2023-05-21T04:02:10.187Z,14.06
2023-05-21T04:03:10.208Z,14.08
2023-05-21T04:04:10.241Z,14.08
2023-05-21T04:05:10.127Z,14.06
2023-05-21T04:06:10.368Z,14.06
2023-05-21T04:07:10.086Z,14.06
2023-05-21T04:08:10.082Z,14.06
2023-05-21T04:09:10.056Z,14.08
2023-05-21T04:10:10.088Z,14.09
2023-05-21T04:11:10.031Z,14.11
2023-05-21T04:12:10.086Z,14.13
2023-05-21T04:13:10.015Z,14.13
2023-05-21T04:14:09.968Z,14.13
2023-05-21T04:15:09.977Z,14.13
2023-05-21T04:16:10.053Z,14.16
2023-05-21T04:17:09.947Z,14.17
2023-05-21T04:18:09.954Z,14.16
2023-05-21T04:19:09.928Z,14.17
2023-05-21T04:20:09.927Z,14.17
2023-05-21T04:21:09.863Z,14.20
2023-05-21T04:22:09.885Z,14.21
2023-05-21T04:23:09.894Z,14.21
2023-05-21T04:24:09.888Z,14.19
2023-05-21T04:25:09.813Z,14.20
2023-05-21T04:26:09.840Z,14.21
2023-05-21T04:27:09.857Z,14.23
2023-05-21T04:28:09.806Z,14.21
2023-05-21T04:29:09.776Z,14.21
2023-05-21T04:30:09.787Z,14.23
2023-05-21T04:31:09.762Z,14.23
2023-05-21T04:32:09.749Z,14.21
2023-05-21T04:33:09.747Z,14.21
2023-05-21T04:34:09.737Z,14.20
2023-05-21T04:35:09.687Z,14.19
2023-05-21T04:36:09.704Z,14.19
2023-05-21T04:37:09.653Z,14.20
2023-05-21T04:38:09.660Z,14.19
2023-05-21T04:39:09.649Z,14.21
2023-05-21T04:40:09.669Z,14.21
2023-05-21T04:41:09.613Z,14.21
2023-05-21T04:42:09.630Z,14.21
2023-05-21T04:43:09.616Z,14.23
2023-05-21T04:44:09.594Z,14.23
2023-05-21T04:45:09.566Z,14.21
2023-05-21T04:46:09.708Z,14.19
2023-05-21T04:47:09.589Z,14.20
2023-05-21T04:48:09.561Z,14.17
2023-05-21T04:49:09.527Z,14.12
2023-05-21T04:50:09.506Z,14.13
2023-05-21T04:51:09.483Z,14.17
2023-05-21T04:52:09.495Z,14.16
2023-05-21T04:53:09.464Z,14.19
2023-05-21T04:54:09.460Z,14.20
2023-05-21T04:55:09.460Z,14.20
2023-05-21T04:56:09.474Z,14.21
2023-05-21T04:57:09.433Z,14.20
2023-05-21T04:58:09.413Z,14.20
2023-05-21T04:59:09.424Z,14.19
2023-05-21T05:00:09.365Z,14.19
2023-05-21T05:01:09.411Z,14.19
2023-05-21T05:02:09.369Z,14.20
2023-05-21T05:03:09.401Z,14.20
2023-05-21T05:04:09.335Z,14.21
2023-05-21T05:05:09.279Z,14.20
2023-05-21T05:06:09.324Z,14.23
2023-05-21T05:07:09.276Z,14.26
2023-05-21T05:08:09.298Z,14.27
2023-05-21T05:09:09.250Z,14.24
2023-05-21T05:10:09.274Z,14.27
2023-05-21T05:11:09.289Z,14.27
2023-05-21T05:12:09.225Z,14.34
2023-05-21T05:13:10.376Z,14.30
2023-05-21T05:14:09.209Z,14.27
2023-05-21T05:15:09.184Z,14.26
2023-05-21T05:16:09.206Z,14.27
2023-05-21T05:17:09.132Z,14.29
2023-05-21T05:18:09.222Z,14.27
2023-05-21T05:19:09.203Z,14.26
2023-05-21T05:20:09.121Z,14.27
2023-05-21T05:21:09.109Z,14.29
2023-05-21T05:22:09.070Z,14.30
2023-05-21T05:23:09.090Z,14.31
2023-05-21T05:24:09.071Z,14.34
2023-05-21T05:25:09.053Z,14.35
2023-05-21T05:26:09.030Z,14.39
2023-05-21T05:27:09.040Z,14.39
2023-05-21T05:28:08.992Z,14.44
2023-05-21T05:29:09.022Z,14.45
2023-05-21T05:30:08.988Z,14.48
2023-05-21T05:31:08.995Z,14.52
2023-05-21T05:32:08.942Z,14.53
2023-05-21T05:33:08.996Z,14.57
2023-05-21T05:34:08.909Z,14.57
2023-05-21T05:35:08.931Z,14.59
2023-05-21T05:36:08.910Z,14.61
2023-05-21T05:37:08.885Z,14.63
2023-05-21T05:38:08.946Z,14.63
2023-05-21T05:39:08.859Z,14.64
2023-05-21T05:40:08.860Z,14.64
2023-05-21T05:41:08.844Z,14.67
2023-05-21T05:42:08.856Z,14.69
2023-05-21T05:43:08.833Z,14.71
2023-05-21T05:44:10.811Z,14.74
2023-05-21T05:45:08.759Z,14.75
2023-05-21T05:46:08.871Z,14.78
2023-05-21T05:47:08.745Z,14.75
2023-05-21T05:48:08.768Z,14.75
2023-05-21T05:49:08.707Z,14.78
2023-05-21T05:50:08.729Z,14.75
2023-05-21T05:51:08.700Z,14.75
2023-05-21T05:52:08.679Z,14.79
2023-05-21T05:53:08.655Z,14.79
2023-05-21T05:54:08.676Z,14.79
2023-05-21T05:55:08.657Z,14.82
2023-05-21T05:56:08.644Z,14.83
2023-05-21T05:57:08.621Z,14.85
2023-05-21T05:58:08.636Z,14.86
2023-05-21T05:59:08.680Z,14.82
2023-05-21T06:00:08.592Z,14.82
2023-05-21T06:01:08.568Z,14.80
2023-05-21T06:02:08.620Z,14.82
2023-05-21T06:03:08.606Z,14.86
2023-05-21T06:04:08.579Z,14.86
2023-05-21T06:05:08.485Z,14.90
2023-05-21T06:06:08.617Z,14.94
2023-05-21T06:07:08.464Z,14.97
2023-05-21T06:08:08.457Z,15.01
2023-05-21T06:09:08.495Z,15.01
2023-05-21T06:10:08.443Z,15.04
2023-05-21T06:11:08.429Z,15.09
2023-05-21T06:12:09.547Z,15.11
2023-05-21T06:13:08.405Z,15.15
2023-05-21T06:14:08.381Z,15.16
2023-05-21T06:15:08.387Z,15.19
2023-05-21T06:16:08.368Z,15.20
2023-05-21T06:17:08.379Z,15.19
2023-05-21T06:18:08.394Z,15.18
2023-05-21T06:19:08.394Z,15.19
2023-05-21T06:20:08.343Z,15.20
2023-05-21T06:21:08.280Z,15.22
2023-05-21T06:22:08.309Z,15.22
2023-05-21T06:23:08.246Z,15.25
2023-05-21T06:24:08.306Z,15.28
2023-05-21T06:25:08.268Z,15.30
2023-05-21T06:26:08.223Z,15.31
2023-05-21T06:27:08.195Z,15.35
2023-05-21T06:28:08.205Z,15.38
2023-05-21T06:29:08.177Z,15.40
2023-05-21T06:30:08.199Z,15.40
2023-05-21T06:31:08.164Z,15.41
2023-05-21T06:32:08.182Z,15.38
2023-05-21T06:33:08.204Z,15.40
2023-05-21T06:34:08.194Z,15.41
2023-05-21T06:35:08.124Z,15.43
2023-05-21T06:36:08.096Z,15.46
2023-05-21T06:37:08.091Z,15.49
2023-05-21T06:38:08.090Z,15.48
2023-05-21T06:39:08.087Z,15.46
2023-05-21T06:40:08.056Z,15.49
2023-05-21T06:41:08.034Z,15.52
2023-05-21T06:42:08.045Z,15.56
2023-05-21T06:43:07.991Z,15.44
2023-05-21T06:44:07.975Z,15.48
2023-05-21T06:45:07.975Z,15.51
2023-05-21T06:46:08.017Z,15.56
2023-05-21T06:47:07.977Z,15.60
2023-05-21T06:48:07.980Z,15.62
2023-05-21T06:49:07.939Z,15.60
2023-05-21T06:50:07.951Z,15.56
2023-05-21T06:51:07.885Z,15.59
2023-05-21T06:52:07.923Z,15.64
2023-05-21T06:53:07.848Z,15.67
2023-05-21T06:54:07.902Z,15.71
2023-05-21T06:55:07.820Z,15.74
2023-05-21T06:56:07.861Z,15.78
2023-05-21T06:57:07.813Z,15.81
2023-05-21T06:58:07.864Z,15.88
2023-05-21T06:59:07.810Z,15.84
2023-05-21T07:00:07.820Z,15.89
2023-05-21T07:01:07.785Z,15.93
2023-05-21T07:02:07.793Z,15.98
2023-05-21T07:03:07.834Z,16.03
2023-05-21T07:04:07.760Z,16.10
2023-05-21T07:05:07.747Z,16.14
2023-05-21T07:06:07.689Z,16.14
2023-05-21T07:07:07.692Z,16.16
2023-05-21T07:08:08.513Z,16.23
2023-05-21T07:09:07.672Z,16.27
2023-05-21T07:10:07.651Z,16.33
2023-05-21T07:11:07.659Z,16.27
2023-05-21T07:12:07.642Z,16.26
2023-05-21T07:13:07.659Z,16.17
2023-05-21T07:14:07.578Z,16.08
2023-05-21T07:15:07.612Z,16.06
2023-05-21T07:16:07.547Z,16.08
2023-05-21T07:17:07.831Z,16.14
2023-05-21T07:18:07.608Z,16.25
2023-05-21T07:19:07.549Z,16.32
2023-05-21T07:20:07.526Z,16.34
2023-05-21T07:21:07.533Z,16.33
2023-05-21T07:22:07.486Z,16.40
2023-05-21T07:23:07.516Z,16.42
2023-05-21T07:24:07.508Z,16.42
2023-05-21T07:25:07.525Z,16.47
2023-05-21T07:26:07.420Z,16.51
2023-05-21T07:27:17.713Z,16.57
2023-05-21T07:28:08.413Z,16.59
2023-05-21T07:29:07.466Z,16.62
2023-05-21T07:30:07.443Z,16.67
2023-05-21T07:31:07.413Z,16.70
2023-05-21T07:32:07.375Z,16.78
2023-05-21T07:33:07.507Z,16.84
2023-05-21T07:34:07.319Z,16.88
2023-05-21T07:35:12.073Z,16.84
2023-05-21T07:36:07.303Z,16.78
2023-05-21T07:37:07.335Z,16.77
2023-05-21T07:38:07.257Z,16.75
2023-05-21T07:39:07.284Z,16.70
2023-05-21T07:40:07.300Z,16.70
2023-05-21T07:41:07.270Z,16.72
2023-05-21T07:42:07.253Z,16.73
2023-05-21T07:43:07.230Z,16.78
2023-05-21T07:44:07.277Z,16.70
2023-05-21T07:45:07.220Z,16.66
2023-05-21T07:46:07.202Z,16.72
2023-05-21T07:47:07.173Z,16.75
2023-05-21T07:48:07.185Z,16.82
2023-05-21T07:49:07.186Z,16.85
2023-05-21T07:50:07.147Z,16.85
2023-05-21T07:51:07.144Z,16.87
2023-05-21T07:52:07.143Z,16.91
2023-05-21T07:53:07.203Z,16.91
2023-05-21T07:54:07.068Z,16.96
2023-05-21T07:55:07.081Z,16.99
2023-05-21T07:56:07.070Z,17.02
2023-05-21T07:57:07.028Z,17.05
2023-05-21T07:58:07.016Z,16.96
2023-05-21T07:59:07.039Z,16.90
2023-05-21T08:00:07.035Z,16.95
2023-05-21T08:01:07.022Z,16.96
2023-05-21T08:02:06.975Z,17.00
2023-05-21T08:03:07.030Z,17.10
2023-05-21T08:04:07.096Z,17.14
2023-05-21T08:05:07.083Z,17.15
2023-05-21T08:06:06.923Z,17.18
2023-05-21T08:07:06.947Z,17.21
2023-05-21T08:08:06.869Z,17.22
2023-05-21T08:09:06.934Z,17.21
2023-05-21T08:10:06.881Z,17.20
2023-05-21T08:11:06.880Z,17.15
2023-05-21T08:12:06.846Z,17.14
2023-05-21T08:13:06.851Z,17.12
2023-05-21T08:14:06.819Z,17.18
2023-05-21T08:15:06.816Z,17.20
2023-05-21T08:16:06.841Z,17.24
2023-05-21T08:17:06.793Z,17.30
2023-05-21T08:18:06.820Z,17.39
2023-05-21T08:19:06.820Z,17.46
2023-05-21T08:20:06.756Z,17.54
2023-05-21T08:21:06.726Z,17.62
2023-05-21T08:22:06.808Z,17.66
2023-05-21T08:23:06.712Z,17.73
2023-05-21T08:24:06.685Z,17.79
2023-05-21T08:25:06.684Z,17.79
2023-05-21T08:26:06.644Z,17.76
2023-05-21T08:27:06.661Z,17.81
2023-05-21T08:28:06.605Z,17.87
2023-05-21T08:29:06.655Z,17.91
2023-05-21T08:30:06.624Z,17.96
2023-05-21T08:31:06.646Z,17.94
2023-05-21T08:32:06.748Z,17.96
2023-05-21T08:33:06.619Z,17.98
2023-05-21T08:34:06.566Z,17.94
2023-05-21T08:35:06.576Z,17.94
2023-05-21T08:36:06.554Z,17.96
2023-05-21T08:37:06.525Z,17.86
2023-05-21T08:38:06.510Z,17.83
2023-05-21T08:39:06.505Z,17.87
2023-05-21T08:40:06.525Z,17.89
2023-05-21T08:41:06.455Z,17.91
2023-05-21T08:42:06.462Z,17.94
2023-05-21T08:43:06.462Z,17.96
2023-05-21T08:44:06.418Z,17.98
2023-05-21T08:45:06.433Z,18.02
2023-05-21T08:46:06.443Z,18.11
2023-05-21T08:47:06.383Z,18.19
2023-05-21T08:48:06.477Z,18.23
2023-05-21T08:49:06.348Z,18.26
2023-05-21T08:50:06.323Z,18.32
2023-05-21T08:51:06.348Z,18.38
2023-05-21T08:52:06.322Z,18.42
2023-05-21T08:53:16.078Z,18.44
2023-05-21T08:54:07.290Z,18.44
2023-05-21T08:55:06.338Z,18.34
2023-05-21T08:56:06.255Z,18.35
2023-05-21T08:57:06.283Z,18.32
2023-05-21T08:58:06.231Z,18.34
2023-05-21T08:59:06.233Z,18.38
2023-05-21T09:00:06.201Z,18.35
2023-05-21T09:01:06.256Z,18.31
2023-05-21T09:02:06.195Z,18.35
2023-05-21T09:03:06.344Z,18.47
2023-05-21T09:04:19.649Z,18.54
2023-05-21T09:05:07.146Z,18.64
2023-05-21T09:06:06.106Z,18.75
2023-05-21T09:07:06.135Z,18.87
2023-05-21T09:08:06.116Z,18.91
2023-05-21T09:09:06.098Z,18.90
2023-05-21T09:10:06.053Z,18.91
2023-05-21T09:11:06.064Z,18.97
2023-05-21T09:12:06.077Z,19.05
2023-05-21T09:13:06.037Z,19.12
2023-05-21T09:14:06.101Z,19.17
2023-05-21T09:15:06.003Z,19.25
2023-05-21T09:16:06.020Z,19.16
2023-05-21T09:17:06.044Z,19.15
2023-05-21T09:18:06.007Z,19.17
2023-05-21T09:19:06.048Z,19.24
2023-05-21T09:20:05.954Z,19.28
2023-05-21T09:21:05.962Z,19.28
2023-05-21T09:22:05.946Z,19.17
2023-05-21T09:23:05.936Z,19.15
2023-05-21T09:24:05.900Z,19.09
2023-05-21T09:25:05.881Z,19.06
2023-05-21T09:26:05.858Z,18.99
2023-05-21T09:27:05.871Z,18.99
2023-05-21T09:28:05.850Z,18.99
2023-05-21T09:29:05.849Z,18.96
2023-05-21T09:30:05.804Z,19.05
2023-05-21T09:31:05.830Z,19.07
2023-05-21T09:32:05.767Z,19.12
2023-05-21T09:33:05.804Z,19.20
2023-05-21T09:34:05.799Z,19.28
2023-05-21T09:35:05.762Z,19.35
2023-05-21T09:36:05.743Z,19.34
2023-05-21T09:37:08.535Z,19.34
2023-05-21T09:38:06.725Z,19.40
2023-05-21T09:39:05.727Z,19.52
2023-05-21T09:40:05.661Z,19.58
2023-05-21T09:41:05.689Z,19.62
2023-05-21T09:42:05.628Z,19.70
2023-05-21T09:43:05.644Z,19.72
2023-05-21T09:44:05.655Z,19.79
2023-05-21T09:45:05.666Z,19.86
2023-05-21T09:46:05.693Z,19.82
2023-05-21T09:47:05.648Z,19.89
2023-05-21T09:48:05.636Z,19.94
2023-05-21T09:49:05.607Z,19.97
2023-05-21T09:50:05.544Z,19.97
2023-05-21T09:51:05.570Z,19.97
2023-05-21T09:52:05.504Z,19.90
2023-05-21T09:53:05.517Z,19.92
2023-05-21T09:54:05.532Z,19.98
2023-05-21T09:55:05.529Z,20.07
2023-05-21T09:56:05.489Z,20.13
2023-05-21T09:57:05.478Z,20.13
2023-05-21T09:58:05.442Z,19.98
2023-05-21T09:59:05.474Z,19.87
2023-05-21T10:00:05.436Z,19.82
2023-05-21T10:01:05.445Z,19.86
2023-05-21T10:02:05.433Z,19.87
2023-05-21T10:03:05.409Z,19.86
2023-05-21T10:04:05.445Z,19.95
2023-05-21T10:05:05.388Z,20.04
2023-05-21T10:06:05.357Z,20.13
2023-05-21T10:07:05.345Z,20.20
2023-05-21T10:08:05.332Z,20.17
2023-05-21T10:09:05.936Z,20.19
2023-05-21T10:10:05.368Z,20.17
2023-05-21T10:11:05.276Z,20.16
2023-05-21T10:12:05.264Z,20.22
2023-05-21T10:13:05.281Z,20.33
2023-05-21T10:14:05.265Z,20.38
2023-05-21T10:15:05.285Z,20.41
2023-05-21T10:16:05.259Z,20.41
2023-05-21T10:17:05.184Z,20.35
2023-05-21T10:18:05.188Z,20.31
2023-05-21T10:19:05.321Z,20.37
2023-05-21T10:20:05.226Z,20.41
2023-05-21T10:21:05.197Z,20.48
2023-05-21T10:22:05.132Z,20.53
2023-05-21T10:23:05.174Z,20.53
2023-05-21T10:24:05.142Z,20.53
2023-05-21T10:25:05.134Z,20.50
2023-05-21T10:26:05.060Z,20.41
2023-05-21T10:27:05.080Z,20.40
2023-05-21T10:28:05.028Z,20.41
2023-05-21T10:29:05.076Z,20.44
2023-05-21T10:30:04.998Z,20.40
2023-05-21T10:31:05.050Z,20.34
2023-05-21T10:32:04.995Z,20.34
2023-05-21T10:33:05.032Z,20.35
2023-05-21T10:34:05.029Z,20.38
2023-05-21T10:35:04.981Z,20.42
2023-05-21T10:36:04.961Z,20.46
2023-05-21T10:37:04.977Z,20.35
2023-05-21T10:38:04.916Z,20.33
2023-05-21T10:39:04.909Z,20.33
2023-05-21T10:40:04.961Z,20.34
2023-05-21T10:41:04.914Z,20.40
2023-05-21T10:42:04.893Z,20.46
2023-05-21T10:43:04.854Z,20.51
2023-05-21T10:44:04.881Z,20.56
2023-05-21T10:45:04.820Z,20.60
2023-05-21T10:46:04.882Z,20.57
2023-05-21T10:47:04.808Z,20.60
2023-05-21T10:48:04.878Z,20.64
2023-05-21T10:49:04.846Z,20.71
2023-05-21T10:50:04.806Z,20.72
2023-05-21T10:51:04.768Z,20.66
2023-05-21T10:52:04.732Z,20.64
2023-05-21T10:53:04.726Z,20.68
2023-05-21T10:54:04.700Z,20.68
2023-05-21T10:55:04.722Z,20.71
2023-05-21T10:56:04.674Z,20.72
2023-05-21T10:57:04.668Z,20.69
2023-05-21T10:58:04.674Z,20.69
2023-05-21T10:59:04.661Z,20.69
2023-05-21T11:00:04.688Z,20.69
2023-05-21T11:01:04.642Z,20.71
2023-05-21T11:02:04.666Z,20.69
2023-05-21T11:03:04.804Z,20.71
2023-05-21T11:04:04.585Z,20.75
2023-05-21T11:05:04.575Z,20.78
2023-05-21T11:06:04.540Z,20.81
2023-05-21T11:07:04.544Z,20.83
2023-05-21T11:08:04.542Z,20.91
2023-05-21T11:09:04.565Z,20.96
2023-05-21T11:10:04.486Z,21.06
2023-05-21T11:11:04.528Z,21.11
2023-05-21T11:12:04.499Z,21.09
2023-05-21T11:13:04.482Z,21.13
2023-05-21T11:14:04.517Z,21.18
2023-05-21T11:15:04.453Z,21.18
2023-05-21T11:16:04.401Z,21.22
2023-05-21T11:17:04.559Z,21.33
2023-05-21T11:18:04.468Z,21.40
2023-05-21T11:19:04.524Z,21.40
2023-05-21T11:20:04.451Z,21.42
2023-05-21T11:21:04.367Z,21.45
2023-05-21T11:22:04.346Z,21.43
2023-05-21T11:23:04.325Z,21.46
2023-05-21T11:24:04.355Z,21.40
2023-05-21T11:25:04.316Z,21.43
2023-05-21T11:26:04.289Z,21.51
2023-05-21T11:27:04.313Z,21.55
2023-05-21T11:28:04.287Z,21.56
2023-05-21T11:29:04.278Z,21.61
2023-05-21T11:30:04.298Z,21.68
2023-05-21T11:31:04.266Z,21.70
2023-05-21T11:32:04.212Z,21.74
2023-05-21T11:33:04.303Z,21.82
2023-05-21T11:34:04.226Z,21.94
2023-05-21T11:35:04.188Z,22.02
2023-05-21T11:36:04.181Z,22.06
2023-05-21T11:37:04.132Z,21.98
2023-05-21T11:38:04.159Z,21.96
2023-05-21T11:39:04.118Z,22.01
2023-05-21T11:40:04.123Z,22.04
2023-05-21T11:41:04.113Z,22.08
2023-05-21T11:42:04.761Z,22.06
2023-05-21T11:43:04.063Z,22.04
2023-05-21T11:44:04.077Z,22.04
2023-05-21T11:45:04.101Z,22.01
2023-05-21T11:46:04.047Z,21.94
2023-05-21T11:47:04.052Z,21.94
2023-05-21T11:48:04.074Z,21.94
2023-05-21T11:49:04.025Z,21.94
2023-05-21T11:50:03.997Z,21.98
2023-05-21T11:51:03.965Z,22.02
2023-05-21T11:52:03.977Z,22.02
2023-05-21T11:53:03.941Z,21.98
2023-05-21T11:54:04.054Z,21.93
2023-05-21T11:55:03.934Z,21.98
2023-05-21T11:56:03.913Z,21.99
2023-05-21T11:57:03.888Z,22.01
2023-05-21T11:58:03.894Z,22.04
2023-05-21T11:59:03.896Z,22.02
2023-05-21T12:00:03.851Z,22.04
2023-05-21T12:01:03.855Z,22.05
2023-05-21T12:02:03.836Z,22.09
2023-05-21T12:03:03.928Z,22.17
2023-05-21T12:04:03.918Z,22.19
2023-05-21T12:05:03.791Z,22.24
2023-05-21T12:06:03.837Z,22.30
2023-05-21T12:07:03.750Z,22.31
2023-05-21T12:08:03.803Z,22.31
2023-05-21T12:09:03.764Z,22.36
2023-05-21T12:10:03.714Z,22.39
2023-05-21T12:11:03.715Z,22.44
2023-05-21T12:12:03.744Z,22.44
2023-05-21T12:13:03.667Z,22.35
2023-05-21T12:14:03.788Z,22.29
2023-05-21T12:15:03.690Z,22.33
2023-05-21T12:16:06.466Z,22.35
2023-05-21T12:17:03.637Z,22.39
2023-05-21T12:18:03.665Z,22.45
2023-05-21T12:19:03.650Z,22.45
2023-05-21T12:20:03.591Z,22.48
2023-05-21T12:21:03.585Z,22.48
2023-05-21T12:22:03.557Z,22.49
2023-05-21T12:23:03.552Z,22.46
2023-05-21T12:24:03.540Z,22.49
2023-05-21T12:25:03.522Z,22.52
2023-05-21T12:26:03.525Z,22.57
2023-05-21T12:27:03.489Z,22.57
2023-05-21T12:28:03.549Z,22.46
2023-05-21T12:29:03.486Z,22.42
2023-05-21T12:30:03.457Z,22.41
2023-05-21T12:31:03.438Z,22.42
2023-05-21T12:32:03.575Z,22.42
2023-05-21T12:33:03.491Z,22.41
2023-05-21T12:34:03.419Z,22.42
2023-05-21T12:35:03.451Z,22.45
2023-05-21T12:36:03.368Z,22.44
2023-05-21T12:37:03.427Z,22.51
2023-05-21T12:38:03.378Z,22.48
2023-05-21T12:39:03.321Z,22.38
2023-05-21T12:40:03.360Z,22.35
2023-05-21T12:41:03.316Z,22.33
2023-05-21T12:42:03.322Z,22.30
2023-05-21T12:43:03.266Z,22.27
2023-05-21T12:44:03.293Z,22.21
2023-05-21T12:45:03.272Z,22.23
2023-05-21T12:46:03.292Z,22.24
2023-05-21T12:47:03.225Z,22.29
2023-05-21T12:48:03.365Z,22.29
2023-05-21T12:49:03.216Z,22.33
2023-05-21T12:50:03.196Z,22.36
2023-05-21T12:51:03.182Z,22.41
2023-05-21T12:52:03.181Z,22.42